sensor_id;sensor_type;location;lat;lon;timestamp;P1;durP1;ratioP1;P2;durP2;ratioP2
4434;SDS011;46552;52.150;8.428;2023-04-10T00:01:36;65.77;;;34.60;;
4434;SDS011;46552;52.150;8.428;2023-04-10T00:04:04;77.03;;;35.47;;
4434;SDS011;46552;52.150;8.428;2023-04-10T00:06:33;63.33;;;34.63;;
4434;SDS011;46552;52.150;8.428;2023-04-10T00:09:01;73.07;;;34.63;;
4434;SDS011;46552;52.150;8.428;2023-04-10T00:11:29;73.57;;;34.80;;
4434;SDS011;46552;52.150;8.428;2023-04-10T00:13:56;65.97;;;32.70;;
4434;SDS011;46552;52.150;8.428;2023-04-10T00:16:24;71.97;;;35.13;;
4434;SDS011;46552;52.150;8.428;2023-04-10T00:18:52;63.33;;;31.27;;
4434;SDS011;46552;52.150;8.428;2023-04-10T00:21:20;70.73;;;35.43;;
4434;SDS011;46552;52.150;8.428;2023-04-10T00:23:47;77.73;;;36.60;;
4434;SDS011;46552;52.150;8.428;2023-04-10T00:26:16;81.00;;;37.57;;
4434;SDS011;46552;52.150;8.428;2023-04-10T00:28:44;71.37;;;35.40;;
4434;SDS011;46552;52.150;8.428;2023-04-10T00:31:12;78.47;;;35.10;;
4434;SDS011;46552;52.150;8.428;2023-04-10T00:33:39;87.40;;;34.07;;
4434;SDS011;46552;52.150;8.428;2023-04-10T00:36:07;66.13;;;34.23;;
4434;SDS011;46552;52.150;8.428;2023-04-10T00:38:34;82.97;;;38.90;;
4434;SDS011;46552;52.150;8.428;2023-04-10T00:41:03;84.93;;;37.30;;
4434;SDS011;46552;52.150;8.428;2023-04-10T00:43:32;72.07;;;36.13;;
4434;SDS011;46552;52.150;8.428;2023-04-10T00:45:59;67.10;;;38.40;;
4434;SDS011;46552;52.150;8.428;2023-04-10T00:48:27;76.20;;;34.50;;
4434;SDS011;46552;52.150;8.428;2023-04-10T00:50:54;78.10;;;36.23;;
4434;SDS011;46552;52.150;8.428;2023-04-10T00:53:21;76.33;;;37.30;;
4434;SDS011;46552;52.150;8.428;2023-04-10T00:55:49;66.57;;;34.00;;
4434;SDS011;46552;52.150;8.428;2023-04-10T00:58:16;72.73;;;35.30;;
4434;SDS011;46552;52.150;8.428;2023-04-10T01:00:45;77.80;;;33.00;;
4434;SDS011;46552;52.150;8.428;2023-04-10T01:03:14;65.97;;;33.30;;
4434;SDS011;46552;52.150;8.428;2023-04-10T01:05:43;77.73;;;35.33;;
4434;SDS011;46552;52.150;8.428;2023-04-10T01:08:16;68.97;;;34.27;;
4434;SDS011;46552;52.150;8.428;2023-04-10T01:10:45;69.07;;;33.73;;
4434;SDS011;46552;52.150;8.428;2023-04-10T01:13:16;76.87;;;32.97;;
4434;SDS011;46552;52.150;8.428;2023-04-10T01:15:48;62.67;;;34.90;;
4434;SDS011;46552;52.150;8.428;2023-04-10T01:18:18;57.73;;;33.10;;
4434;SDS011;46552;52.150;8.428;2023-04-10T01:20:48;64.07;;;32.37;;
4434;SDS011;46552;52.150;8.428;2023-04-10T01:23:22;59.50;;;31.00;;
4434;SDS011;46552;52.150;8.428;2023-04-10T01:25:55;66.50;;;31.90;;
4434;SDS011;46552;52.150;8.428;2023-04-10T01:31:02;59.67;;;31.00;;
4434;SDS011;46552;52.150;8.428;2023-04-10T01:33:35;65.33;;;33.03;;
4434;SDS011;46552;52.150;8.428;2023-04-10T01:36:07;55.20;;;28.97;;
4434;SDS011;46552;52.150;8.428;2023-04-10T01:38:35;58.07;;;30.87;;
4434;SDS011;46552;52.150;8.428;2023-04-10T01:41:03;62.70;;;30.80;;
4434;SDS011;46552;52.150;8.428;2023-04-10T01:43:31;67.80;;;32.93;;
4434;SDS011;46552;52.150;8.428;2023-04-10T01:46:01;58.03;;;31.93;;
4434;SDS011;46552;52.150;8.428;2023-04-10T01:48:29;67.40;;;34.20;;
4434;SDS011;46552;52.150;8.428;2023-04-10T01:50:59;65.07;;;33.20;;
4434;SDS011;46552;52.150;8.428;2023-04-10T01:53:27;61.07;;;33.07;;
4434;SDS011;46552;52.150;8.428;2023-04-10T01:55:55;68.47;;;34.60;;
4434;SDS011;46552;52.150;8.428;2023-04-10T01:58:23;61.70;;;31.53;;
4434;SDS011;46552;52.150;8.428;2023-04-10T02:00:51;76.03;;;34.67;;
4434;SDS011;46552;52.150;8.428;2023-04-10T02:03:22;79.37;;;31.90;;
4434;SDS011;46552;52.150;8.428;2023-04-10T02:05:53;62.97;;;33.00;;
4434;SDS011;46552;52.150;8.428;2023-04-10T02:08:23;59.63;;;31.30;;
4434;SDS011;46552;52.150;8.428;2023-04-10T02:10:53;58.20;;;29.43;;
4434;SDS011;46552;52.150;8.428;2023-04-10T02:13:22;61.33;;;30.90;;
4434;SDS011;46552;52.150;8.428;2023-04-10T02:15:52;73.90;;;35.03;;
4434;SDS011;46552;52.150;8.428;2023-04-10T02:18:23;68.90;;;36.10;;
4434;SDS011;46552;52.150;8.428;2023-04-10T02:20:50;62.80;;;33.97;;
4434;SDS011;46552;52.150;8.428;2023-04-10T02:23:18;64.30;;;34.10;;
4434;SDS011;46552;52.150;8.428;2023-04-10T02:25:45;67.93;;;34.60;;
4434;SDS011;46552;52.150;8.428;2023-04-10T02:28:13;72.30;;;36.03;;
4434;SDS011;46552;52.150;8.428;2023-04-10T02:30:40;66.23;;;35.10;;
4434;SDS011;46552;52.150;8.428;2023-04-10T02:33:07;66.37;;;33.43;;
4434;SDS011;46552;52.150;8.428;2023-04-10T02:35:37;63.40;;;34.00;;
4434;SDS011;46552;52.150;8.428;2023-04-10T02:38:04;66.87;;;34.60;;
4434;SDS011;46552;52.150;8.428;2023-04-10T02:40:32;64.97;;;31.73;;
4434;SDS011;46552;52.150;8.428;2023-04-10T02:42:59;79.53;;;34.80;;
4434;SDS011;46552;52.150;8.428;2023-04-10T02:45:27;79.00;;;34.27;;
4434;SDS011;46552;52.150;8.428;2023-04-10T02:47:54;67.77;;;34.40;;
4434;SDS011;46552;52.150;8.428;2023-04-10T02:50:22;76.73;;;33.10;;
4434;SDS011;46552;52.150;8.428;2023-04-10T02:52:56;71.03;;;33.77;;
4434;SDS011;46552;52.150;8.428;2023-04-10T02:55:24;59.97;;;30.97;;
4434;SDS011;46552;52.150;8.428;2023-04-10T02:57:51;63.67;;;32.40;;
4434;SDS011;46552;52.150;8.428;2023-04-10T03:00:19;62.47;;;31.00;;
4434;SDS011;46552;52.150;8.428;2023-04-10T03:02:47;95.80;;;33.40;;
4434;SDS011;46552;52.150;8.428;2023-04-10T03:05:15;66.13;;;32.03;;
4434;SDS011;46552;52.150;8.428;2023-04-10T03:07:42;69.63;;;32.47;;
4434;SDS011;46552;52.150;8.428;2023-04-10T03:10:11;61.73;;;32.03;;
4434;SDS011;46552;52.150;8.428;2023-04-10T03:12:38;61.60;;;30.80;;
4434;SDS011;46552;52.150;8.428;2023-04-10T03:15:06;63.20;;;30.33;;
4434;SDS011;46552;52.150;8.428;2023-04-10T03:17:33;63.40;;;30.67;;
4434;SDS011;46552;52.150;8.428;2023-04-10T03:20:01;64.47;;;31.77;;
4434;SDS011;46552;52.150;8.428;2023-04-10T03:22:28;60.27;;;31.37;;
4434;SDS011;46552;52.150;8.428;2023-04-10T03:24:57;68.50;;;33.23;;
4434;SDS011;46552;52.150;8.428;2023-04-10T03:27:26;58.70;;;31.40;;
4434;SDS011;46552;52.150;8.428;2023-04-10T03:29:56;61.47;;;31.70;;
4434;SDS011;46552;52.150;8.428;2023-04-10T03:32:23;62.87;;;32.07;;
4434;SDS011;46552;52.150;8.428;2023-04-10T03:34:52;64.17;;;27.53;;
4434;SDS011;46552;52.150;8.428;2023-04-10T03:37:19;61.60;;;30.07;;
4434;SDS011;46552;52.150;8.428;2023-04-10T03:39:47;74.33;;;31.30;;
4434;SDS011;46552;52.150;8.428;2023-04-10T03:42:14;63.10;;;28.40;;
4434;SDS011;46552;52.150;8.428;2023-04-10T03:44:44;64.70;;;29.33;;
4434;SDS011;46552;52.150;8.428;2023-04-10T03:47:11;55.20;;;28.60;;
4434;SDS011;46552;52.150;8.428;2023-04-10T03:49:39;56.37;;;27.83;;
4434;SDS011;46552;52.150;8.428;2023-04-10T03:52:06;61.33;;;29.70;;
4434;SDS011;46552;52.150;8.428;2023-04-10T03:54:34;60.60;;;29.47;;
4434;SDS011;46552;52.150;8.428;2023-04-10T03:57:02;55.67;;;28.27;;
4434;SDS011;46552;52.150;8.428;2023-04-10T03:59:29;62.43;;;29.33;;
4434;SDS011;46552;52.150;8.428;2023-04-10T04:01:58;62.13;;;29.57;;
4434;SDS011;46552;52.150;8.428;2023-04-10T04:04:26;56.77;;;28.60;;
4434;SDS011;46552;52.150;8.428;2023-04-10T04:06:55;69.90;;;30.83;;
4434;SDS011;46552;52.150;8.428;2023-04-10T04:09:22;52.00;;;27.40;;
4434;SDS011;46552;52.150;8.428;2023-04-10T04:11:50;51.93;;;25.60;;
4434;SDS011;46552;52.150;8.428;2023-04-10T04:14:17;57.63;;;26.13;;
4434;SDS011;46552;52.150;8.428;2023-04-10T04:16:45;59.67;;;28.20;;
4434;SDS011;46552;52.150;8.428;2023-04-10T04:19:14;62.33;;;27.00;;
4434;SDS011;46552;52.150;8.428;2023-04-10T04:21:42;52.97;;;26.67;;
4434;SDS011;46552;52.150;8.428;2023-04-10T04:24:09;55.70;;;27.00;;
4434;SDS011;46552;52.150;8.428;2023-04-10T04:26:37;72.60;;;27.47;;
4434;SDS011;46552;52.150;8.428;2023-04-10T04:29:05;54.87;;;26.47;;
4434;SDS011;46552;52.150;8.428;2023-04-10T04:31:33;51.93;;;27.23;;
4434;SDS011;46552;52.150;8.428;2023-04-10T04:34:00;60.77;;;27.17;;
4434;SDS011;46552;52.150;8.428;2023-04-10T04:36:29;58.10;;;26.63;;
4434;SDS011;46552;52.150;8.428;2023-04-10T04:38:57;58.53;;;27.90;;
4434;SDS011;46552;52.150;8.428;2023-04-10T04:41:24;54.83;;;25.93;;
4434;SDS011;46552;52.150;8.428;2023-04-10T04:43:51;61.30;;;27.80;;
4434;SDS011;46552;52.150;8.428;2023-04-10T04:46:19;59.53;;;26.43;;
4434;SDS011;46552;52.150;8.428;2023-04-10T04:48:47;58.80;;;26.33;;
4434;SDS011;46552;52.150;8.428;2023-04-10T04:51:14;50.10;;;24.70;;
4434;SDS011;46552;52.150;8.428;2023-04-10T04:53:44;53.90;;;26.77;;
4434;SDS011;46552;52.150;8.428;2023-04-10T04:56:11;61.17;;;25.70;;
4434;SDS011;46552;52.150;8.428;2023-04-10T04:58:39;47.73;;;24.50;;
4434;SDS011;46552;52.150;8.428;2023-04-10T05:01:06;59.47;;;25.30;;
4434;SDS011;46552;52.150;8.428;2023-04-10T05:03:34;56.83;;;25.40;;
4434;SDS011;46552;52.150;8.428;2023-04-10T05:06:01;60.03;;;25.83;;
4434;SDS011;46552;52.150;8.428;2023-04-10T05:08:28;63.73;;;27.27;;
4434;SDS011;46552;52.150;8.428;2023-04-10T05:10:57;51.80;;;25.30;;
4434;SDS011;46552;52.150;8.428;2023-04-10T05:13:24;51.90;;;26.37;;
4434;SDS011;46552;52.150;8.428;2023-04-10T05:15:52;63.30;;;27.17;;
4434;SDS011;46552;52.150;8.428;2023-04-10T05:18:20;46.97;;;24.80;;
4434;SDS011;46552;52.150;8.428;2023-04-10T05:20:47;42.50;;;23.67;;
4434;SDS011;46552;52.150;8.428;2023-04-10T05:23:15;51.97;;;25.20;;
4434;SDS011;46552;52.150;8.428;2023-04-10T05:25:42;46.07;;;22.50;;
4434;SDS011;46552;52.150;8.428;2023-04-10T05:28:11;46.77;;;24.50;;
4434;SDS011;46552;52.150;8.428;2023-04-10T05:30:38;46.97;;;23.87;;
4434;SDS011;46552;52.150;8.428;2023-04-10T05:33:06;42.70;;;23.50;;
4434;SDS011;46552;52.150;8.428;2023-04-10T05:35:33;50.27;;;21.83;;
4434;SDS011;46552;52.150;8.428;2023-04-10T05:38:00;44.40;;;22.80;;
4434;SDS011;46552;52.150;8.428;2023-04-10T05:40:28;48.03;;;24.00;;
4434;SDS011;46552;52.150;8.428;2023-04-10T05:42:55;45.57;;;22.33;;
4434;SDS011;46552;52.150;8.428;2023-04-10T05:45:25;44.90;;;23.23;;
4434;SDS011;46552;52.150;8.428;2023-04-10T05:47:52;43.07;;;21.70;;
4434;SDS011;46552;52.150;8.428;2023-04-10T05:50:20;51.90;;;23.80;;
4434;SDS011;46552;52.150;8.428;2023-04-10T05:52:47;42.00;;;20.57;;
4434;SDS011;46552;52.150;8.428;2023-04-10T05:55:15;39.90;;;22.33;;
4434;SDS011;46552;52.150;8.428;2023-04-10T05:57:43;47.10;;;23.97;;
4434;SDS011;46552;52.150;8.428;2023-04-10T06:00:10;52.03;;;23.60;;
4434;SDS011;46552;52.150;8.428;2023-04-10T06:02:40;41.73;;;21.00;;
4434;SDS011;46552;52.150;8.428;2023-04-10T06:05:08;39.13;;;19.27;;
4434;SDS011;46552;52.150;8.428;2023-04-10T06:07:36;44.57;;;21.03;;
4434;SDS011;46552;52.150;8.428;2023-04-10T06:10:04;40.27;;;20.47;;
4434;SDS011;46552;52.150;8.428;2023-04-10T06:12:32;39.73;;;20.50;;
4434;SDS011;46552;52.150;8.428;2023-04-10T06:15:01;44.90;;;21.20;;
4434;SDS011;46552;52.150;8.428;2023-04-10T06:17:29;39.47;;;20.30;;
4434;SDS011;46552;52.150;8.428;2023-04-10T06:19:58;35.13;;;19.60;;
4434;SDS011;46552;52.150;8.428;2023-04-10T06:22:28;39.30;;;20.23;;
4434;SDS011;46552;52.150;8.428;2023-04-10T06:24:56;44.87;;;22.10;;
4434;SDS011;46552;52.150;8.428;2023-04-10T06:27:24;29.33;;;17.67;;
4434;SDS011;46552;52.150;8.428;2023-04-10T06:29:51;46.67;;;20.13;;
4434;SDS011;46552;52.150;8.428;2023-04-10T06:32:18;35.73;;;17.33;;
4434;SDS011;46552;52.150;8.428;2023-04-10T06:34:46;36.60;;;18.20;;
4434;SDS011;46552;52.150;8.428;2023-04-10T06:37:18;36.87;;;19.50;;
4434;SDS011;46552;52.150;8.428;2023-04-10T06:39:46;33.10;;;18.43;;
4434;SDS011;46552;52.150;8.428;2023-04-10T06:42:13;34.70;;;18.60;;
4434;SDS011;46552;52.150;8.428;2023-04-10T06:44:40;39.97;;;19.50;;
4434;SDS011;46552;52.150;8.428;2023-04-10T06:47:08;30.60;;;17.13;;
4434;SDS011;46552;52.150;8.428;2023-04-10T06:49:35;33.67;;;18.63;;
4434;SDS011;46552;52.150;8.428;2023-04-10T06:52:03;32.40;;;18.10;;
4434;SDS011;46552;52.150;8.428;2023-04-10T06:54:32;36.70;;;18.93;;
4434;SDS011;46552;52.150;8.428;2023-04-10T06:57:00;30.53;;;17.17;;
4434;SDS011;46552;52.150;8.428;2023-04-10T06:59:28;35.13;;;18.70;;
4434;SDS011;46552;52.150;8.428;2023-04-10T07:01:59;30.77;;;15.30;;
4434;SDS011;46552;52.150;8.428;2023-04-10T07:04:26;32.80;;;18.23;;
4434;SDS011;46552;52.150;8.428;2023-04-10T07:06:53;28.37;;;16.80;;
4434;SDS011;46552;52.150;8.428;2023-04-10T07:09:20;33.37;;;16.30;;
4434;SDS011;46552;52.150;8.428;2023-04-10T07:11:50;29.10;;;15.77;;
4434;SDS011;46552;52.150;8.428;2023-04-10T07:14:17;29.07;;;16.43;;
4434;SDS011;46552;52.150;8.428;2023-04-10T07:16:45;31.90;;;14.97;;
4434;SDS011;46552;52.150;8.428;2023-04-10T07:19:13;29.73;;;17.53;;
4434;SDS011;46552;52.150;8.428;2023-04-10T07:21:40;29.23;;;15.63;;
4434;SDS011;46552;52.150;8.428;2023-04-10T07:24:08;29.77;;;16.13;;
4434;SDS011;46552;52.150;8.428;2023-04-10T07:26:35;24.43;;;14.00;;
4434;SDS011;46552;52.150;8.428;2023-04-10T07:29:05;24.07;;;13.70;;
4434;SDS011;46552;52.150;8.428;2023-04-10T07:31:33;24.67;;;13.63;;
4434;SDS011;46552;52.150;8.428;2023-04-10T07:34:00;24.20;;;13.27;;
4434;SDS011;46552;52.150;8.428;2023-04-10T07:36:29;23.17;;;12.60;;
4434;SDS011;46552;52.150;8.428;2023-04-10T07:38:57;21.80;;;12.37;;
4434;SDS011;46552;52.150;8.428;2023-04-10T07:41:24;22.03;;;11.03;;
4434;SDS011;46552;52.150;8.428;2023-04-10T07:43:51;19.30;;;12.30;;
4434;SDS011;46552;52.150;8.428;2023-04-10T07:46:20;21.70;;;12.10;;
4434;SDS011;46552;52.150;8.428;2023-04-10T07:48:48;17.20;;;10.93;;
4434;SDS011;46552;52.150;8.428;2023-04-10T07:51:15;20.93;;;10.40;;
4434;SDS011;46552;52.150;8.428;2023-04-10T07:53:43;16.60;;;10.00;;
4434;SDS011;46552;52.150;8.428;2023-04-10T07:56:13;14.03;;;9.03;;
4434;SDS011;46552;52.150;8.428;2023-04-10T07:58:42;18.80;;;10.57;;
4434;SDS011;46552;52.150;8.428;2023-04-10T08:01:10;17.30;;;10.67;;
4434;SDS011;46552;52.150;8.428;2023-04-10T08:03:39;18.07;;;9.60;;
4434;SDS011;46552;52.150;8.428;2023-04-10T08:06:07;19.33;;;9.03;;
4434;SDS011;46552;52.150;8.428;2023-04-10T08:08:35;13.80;;;8.17;;
4434;SDS011;46552;52.150;8.428;2023-04-10T08:11:03;15.00;;;9.90;;
4434;SDS011;46552;52.150;8.428;2023-04-10T08:13:30;15.10;;;10.50;;
4434;SDS011;46552;52.150;8.428;2023-04-10T08:15:59;14.67;;;9.97;;
4434;SDS011;46552;52.150;8.428;2023-04-10T08:18:26;16.50;;;9.60;;
4434;SDS011;46552;52.150;8.428;2023-04-10T08:20:55;16.93;;;10.27;;
4434;SDS011;46552;52.150;8.428;2023-04-10T08:23:22;15.63;;;10.00;;
4434;SDS011;46552;52.150;8.428;2023-04-10T08:25:51;18.67;;;9.20;;
4434;SDS011;46552;52.150;8.428;2023-04-10T08:28:18;17.10;;;9.73;;
4434;SDS011;46552;52.150;8.428;2023-04-10T08:30:45;13.00;;;8.27;;
4434;SDS011;46552;52.150;8.428;2023-04-10T08:33:13;19.37;;;10.07;;
4434;SDS011;46552;52.150;8.428;2023-04-10T08:35:40;16.33;;;9.10;;
4434;SDS011;46552;52.150;8.428;2023-04-10T08:38:09;22.67;;;9.73;;
4434;SDS011;46552;52.150;8.428;2023-04-10T08:40:39;16.03;;;9.67;;
4434;SDS011;46552;52.150;8.428;2023-04-10T08:43:08;22.03;;;10.17;;
4434;SDS011;46552;52.150;8.428;2023-04-10T08:45:35;15.80;;;9.50;;
4434;SDS011;46552;52.150;8.428;2023-04-10T08:48:04;17.70;;;10.00;;
4434;SDS011;46552;52.150;8.428;2023-04-10T08:50:32;19.50;;;10.40;;
4434;SDS011;46552;52.150;8.428;2023-04-10T08:53:02;18.60;;;10.50;;
4434;SDS011;46552;52.150;8.428;2023-04-10T08:55:33;15.47;;;9.80;;
4434;SDS011;46552;52.150;8.428;2023-04-10T08:58:01;15.30;;;8.70;;
4434;SDS011;46552;52.150;8.428;2023-04-10T09:00:28;20.30;;;10.87;;
4434;SDS011;46552;52.150;8.428;2023-04-10T09:02:58;16.20;;;9.17;;
4434;SDS011;46552;52.150;8.428;2023-04-10T09:05:29;16.90;;;9.37;;
4434;SDS011;46552;52.150;8.428;2023-04-10T09:07:56;16.10;;;8.90;;
4434;SDS011;46552;52.150;8.428;2023-04-10T09:10:24;19.23;;;9.70;;
4434;SDS011;46552;52.150;8.428;2023-04-10T09:12:53;16.30;;;9.43;;
4434;SDS011;46552;52.150;8.428;2023-04-10T09:15:20;20.07;;;10.20;;
4434;SDS011;46552;52.150;8.428;2023-04-10T09:17:54;20.00;;;11.10;;
4434;SDS011;46552;52.150;8.428;2023-04-10T09:20:23;18.53;;;10.53;;
4434;SDS011;46552;52.150;8.428;2023-04-10T09:22:52;16.60;;;9.00;;
4434;SDS011;46552;52.150;8.428;2023-04-10T09:25:27;18.50;;;9.83;;
4434;SDS011;46552;52.150;8.428;2023-04-10T09:27:59;18.57;;;11.03;;
4434;SDS011;46552;52.150;8.428;2023-04-10T09:30:34;18.47;;;10.10;;
4434;SDS011;46552;52.150;8.428;2023-04-10T09:33:01;16.27;;;9.50;;
4434;SDS011;46552;52.150;8.428;2023-04-10T09:35:36;17.57;;;10.17;;
4434;SDS011;46552;52.150;8.428;2023-04-10T09:38:16;14.57;;;9.80;;
4434;SDS011;46552;52.150;8.428;2023-04-10T09:40:44;13.77;;;7.73;;
4434;SDS011;46552;52.150;8.428;2023-04-10T09:43:20;17.53;;;10.07;;
4434;SDS011;46552;52.150;8.428;2023-04-10T09:45:49;16.13;;;9.73;;
4434;SDS011;46552;52.150;8.428;2023-04-10T09:48:17;15.10;;;9.87;;
4434;SDS011;46552;52.150;8.428;2023-04-10T09:50:45;13.40;;;8.67;;
4434;SDS011;46552;52.150;8.428;2023-04-10T09:53:15;14.10;;;9.33;;
4434;SDS011;46552;52.150;8.428;2023-04-10T09:55:44;14.10;;;8.83;;
4434;SDS011;46552;52.150;8.428;2023-04-10T09:58:11;19.13;;;9.00;;
4434;SDS011;46552;52.150;8.428;2023-04-10T10:00:41;10.53;;;7.37;;
4434;SDS011;46552;52.150;8.428;2023-04-10T10:03:10;14.93;;;7.57;;
4434;SDS011;46552;52.150;8.428;2023-04-10T10:05:38;11.37;;;7.87;;
4434;SDS011;46552;52.150;8.428;2023-04-10T10:08:06;13.23;;;8.60;;
4434;SDS011;46552;52.150;8.428;2023-04-10T10:10:35;14.20;;;8.20;;
4434;SDS011;46552;52.150;8.428;2023-04-10T10:13:03;10.30;;;7.03;;
4434;SDS011;46552;52.150;8.428;2023-04-10T10:15:33;11.40;;;7.70;;
4434;SDS011;46552;52.150;8.428;2023-04-10T10:18:06;13.47;;;6.90;;
4434;SDS011;46552;52.150;8.428;2023-04-10T10:20:39;11.73;;;7.63;;
4434;SDS011;46552;52.150;8.428;2023-04-10T10:23:11;10.60;;;6.40;;
4434;SDS011;46552;52.150;8.428;2023-04-10T10:25:39;9.57;;;6.00;;
4434;SDS011;46552;52.150;8.428;2023-04-10T10:28:06;12.90;;;7.17;;
4434;SDS011;46552;52.150;8.428;2023-04-10T10:30:33;17.60;;;7.20;;
4434;SDS011;46552;52.150;8.428;2023-04-10T10:33:01;10.80;;;7.70;;
4434;SDS011;46552;52.150;8.428;2023-04-10T10:35:33;12.90;;;7.33;;
4434;SDS011;46552;52.150;8.428;2023-04-10T10:38:01;10.50;;;6.90;;
4434;SDS011;46552;52.150;8.428;2023-04-10T10:40:30;10.80;;;7.33;;
4434;SDS011;46552;52.150;8.428;2023-04-10T10:43:00;9.60;;;6.20;;
4434;SDS011;46552;52.150;8.428;2023-04-10T10:45:33;12.63;;;7.17;;
4434;SDS011;46552;52.150;8.428;2023-04-10T10:48:03;16.73;;;7.37;;
4434;SDS011;46552;52.150;8.428;2023-04-10T10:59:00;13.70;;;8.80;;
4434;SDS011;46552;52.150;8.428;2023-04-10T11:01:27;13.80;;;8.70;;
4434;SDS011;46552;52.150;8.428;2023-04-10T11:03:55;11.60;;;7.80;;
4434;SDS011;46552;52.150;8.428;2023-04-10T11:09:07;11.37;;;7.43;;
4434;SDS011;46552;52.150;8.428;2023-04-10T11:11:36;11.67;;;7.53;;
4434;SDS011;46552;52.150;8.428;2023-04-10T11:14:24;11.43;;;7.10;;
4434;SDS011;46552;52.150;8.428;2023-04-10T11:16:54;12.13;;;7.73;;
4434;SDS011;46552;52.150;8.428;2023-04-10T11:19:21;10.00;;;6.83;;
4434;SDS011;46552;52.150;8.428;2023-04-10T11:21:59;12.10;;;7.77;;
4434;SDS011;46552;52.150;8.428;2023-04-10T11:30:27;10.60;;;6.60;;
4434;SDS011;46552;52.150;8.428;2023-04-10T11:32:54;10.10;;;6.50;;
4434;SDS011;46552;52.150;8.428;2023-04-10T11:35:22;10.30;;;6.90;;
4434;SDS011;46552;52.150;8.428;2023-04-10T11:37:50;11.43;;;6.93;;
4434;SDS011;46552;52.150;8.428;2023-04-10T11:40:17;12.30;;;7.47;;
4434;SDS011;46552;52.150;8.428;2023-04-10T11:42:45;10.47;;;6.53;;
4434;SDS011;46552;52.150;8.428;2023-04-10T11:45:25;13.00;;;6.87;;
4434;SDS011;46552;52.150;8.428;2023-04-10T11:47:54;10.53;;;6.47;;
4434;SDS011;46552;52.150;8.428;2023-04-10T11:50:22;14.00;;;7.33;;
4434;SDS011;46552;52.150;8.428;2023-04-10T11:52:49;9.77;;;6.50;;
4434;SDS011;46552;52.150;8.428;2023-04-10T11:55:16;9.17;;;6.10;;
4434;SDS011;46552;52.150;8.428;2023-04-10T11:57:44;8.50;;;5.90;;
4434;SDS011;46552;52.150;8.428;2023-04-10T12:00:16;11.90;;;5.90;;
4434;SDS011;46552;52.150;8.428;2023-04-10T12:02:49;8.57;;;5.40;;
4434;SDS011;46552;52.150;8.428;2023-04-10T12:05:19;7.70;;;5.00;;
4434;SDS011;46552;52.150;8.428;2023-04-10T12:07:47;10.33;;;5.53;;
4434;SDS011;46552;52.150;8.428;2023-04-10T12:10:15;10.57;;;5.80;;
4434;SDS011;46552;52.150;8.428;2023-04-10T12:12:42;7.77;;;4.90;;
4434;SDS011;46552;52.150;8.428;2023-04-10T12:15:25;9.40;;;5.30;;
4434;SDS011;46552;52.150;8.428;2023-04-10T12:17:53;9.53;;;5.80;;
4434;SDS011;46552;52.150;8.428;2023-04-10T12:20:23;9.43;;;5.63;;
4434;SDS011;46552;52.150;8.428;2023-04-10T12:22:53;8.63;;;5.27;;
4434;SDS011;46552;52.150;8.428;2023-04-10T12:25:25;6.63;;;4.43;;
4434;SDS011;46552;52.150;8.428;2023-04-10T12:27:53;9.27;;;6.30;;
4434;SDS011;46552;52.150;8.428;2023-04-10T12:30:20;9.17;;;5.60;;
4434;SDS011;46552;52.150;8.428;2023-04-10T12:32:51;9.07;;;5.23;;
4434;SDS011;46552;52.150;8.428;2023-04-10T12:35:19;7.27;;;4.97;;
4434;SDS011;46552;52.150;8.428;2023-04-10T12:37:49;6.73;;;4.70;;
4434;SDS011;46552;52.150;8.428;2023-04-10T12:40:19;7.97;;;5.00;;
4434;SDS011;46552;52.150;8.428;2023-04-10T12:42:47;11.10;;;4.60;;
4434;SDS011;46552;52.150;8.428;2023-04-10T12:45:14;6.70;;;4.10;;
4434;SDS011;46552;52.150;8.428;2023-04-10T12:47:42;5.57;;;4.33;;
4434;SDS011;46552;52.150;8.428;2023-04-10T12:50:10;5.80;;;4.53;;
4434;SDS011;46552;52.150;8.428;2023-04-10T12:52:39;8.57;;;5.00;;
4434;SDS011;46552;52.150;8.428;2023-04-10T12:55:09;8.00;;;5.07;;
4434;SDS011;46552;52.150;8.428;2023-04-10T12:57:36;8.07;;;4.20;;
4434;SDS011;46552;52.150;8.428;2023-04-10T13:00:05;8.03;;;5.03;;
4434;SDS011;46552;52.150;8.428;2023-04-10T13:02:33;7.97;;;4.40;;
4434;SDS011;46552;52.150;8.428;2023-04-10T13:05:01;6.87;;;3.93;;
4434;SDS011;46552;52.150;8.428;2023-04-10T13:07:28;8.27;;;4.43;;
4434;SDS011;46552;52.150;8.428;2023-04-10T13:09:56;6.70;;;4.00;;
4434;SDS011;46552;52.150;8.428;2023-04-10T13:12:25;6.20;;;3.73;;
4434;SDS011;46552;52.150;8.428;2023-04-10T13:14:53;7.77;;;4.50;;
4434;SDS011;46552;52.150;8.428;2023-04-10T13:17:21;7.17;;;3.90;;
4434;SDS011;46552;52.150;8.428;2023-04-10T13:19:49;8.43;;;3.90;;
4434;SDS011;46552;52.150;8.428;2023-04-10T13:22:16;6.80;;;3.90;;
4434;SDS011;46552;52.150;8.428;2023-04-10T13:24:44;5.50;;;3.77;;
4434;SDS011;46552;52.150;8.428;2023-04-10T13:27:11;6.13;;;3.53;;
4434;SDS011;46552;52.150;8.428;2023-04-10T13:29:41;5.70;;;3.50;;
4434;SDS011;46552;52.150;8.428;2023-04-10T13:32:09;5.60;;;3.27;;
4434;SDS011;46552;52.150;8.428;2023-04-10T13:34:37;5.40;;;3.43;;
4434;SDS011;46552;52.150;8.428;2023-04-10T13:37:04;5.50;;;3.67;;
4434;SDS011;46552;52.150;8.428;2023-04-10T13:39:31;5.93;;;3.30;;
4434;SDS011;46552;52.150;8.428;2023-04-10T13:41:58;4.73;;;3.10;;
4434;SDS011;46552;52.150;8.428;2023-04-10T13:44:26;6.70;;;3.50;;
4434;SDS011;46552;52.150;8.428;2023-04-10T13:46:55;6.00;;;3.30;;
4434;SDS011;46552;52.150;8.428;2023-04-10T13:49:23;5.97;;;3.60;;
4434;SDS011;46552;52.150;8.428;2023-04-10T13:51:54;4.83;;;3.03;;
4434;SDS011;46552;52.150;8.428;2023-04-10T13:54:22;7.07;;;4.00;;
4434;SDS011;46552;52.150;8.428;2023-04-10T13:56:49;6.20;;;3.20;;
4434;SDS011;46552;52.150;8.428;2023-04-10T13:59:18;5.07;;;2.80;;
4434;SDS011;46552;52.150;8.428;2023-04-10T14:01:45;5.20;;;3.40;;
4434;SDS011;46552;52.150;8.428;2023-04-10T14:04:17;5.00;;;3.50;;
4434;SDS011;46552;52.150;8.428;2023-04-10T14:06:44;4.00;;;2.93;;
4434;SDS011;46552;52.150;8.428;2023-04-10T14:09:11;5.23;;;2.73;;
4434;SDS011;46552;52.150;8.428;2023-04-10T14:11:38;5.90;;;3.27;;
4434;SDS011;46552;52.150;8.428;2023-04-10T14:14:06;12.10;;;3.63;;
4434;SDS011;46552;52.150;8.428;2023-04-10T14:16:33;5.90;;;3.00;;
4434;SDS011;46552;52.150;8.428;2023-04-10T14:19:01;5.47;;;3.10;;
4434;SDS011;46552;52.150;8.428;2023-04-10T14:21:30;4.33;;;2.50;;
4434;SDS011;46552;52.150;8.428;2023-04-10T14:23:57;4.40;;;2.70;;
4434;SDS011;46552;52.150;8.428;2023-04-10T14:26:25;6.57;;;3.50;;
4434;SDS011;46552;52.150;8.428;2023-04-10T14:28:52;5.20;;;2.97;;
4434;SDS011;46552;52.150;8.428;2023-04-10T14:31:19;4.40;;;2.70;;
4434;SDS011;46552;52.150;8.428;2023-04-10T14:33:47;4.50;;;2.87;;
4434;SDS011;46552;52.150;8.428;2023-04-10T14:36:15;7.07;;;3.53;;
4434;SDS011;46552;52.150;8.428;2023-04-10T14:38:44;5.10;;;2.50;;
4434;SDS011;46552;52.150;8.428;2023-04-10T14:41:12;4.73;;;3.33;;
4434;SDS011;46552;52.150;8.428;2023-04-10T14:43:39;7.07;;;3.80;;
4434;SDS011;46552;52.150;8.428;2023-04-10T14:46:06;4.90;;;3.00;;
4434;SDS011;46552;52.150;8.428;2023-04-10T14:48:34;4.70;;;2.87;;
4434;SDS011;46552;52.150;8.428;2023-04-10T14:51:01;4.93;;;3.03;;
4434;SDS011;46552;52.150;8.428;2023-04-10T14:53:29;5.10;;;2.93;;
4434;SDS011;46552;52.150;8.428;2023-04-10T14:55:58;5.83;;;3.60;;
4434;SDS011;46552;52.150;8.428;2023-04-10T14:58:25;4.63;;;3.00;;
4434;SDS011;46552;52.150;8.428;2023-04-10T15:00:53;6.67;;;3.57;;
4434;SDS011;46552;52.150;8.428;2023-04-10T15:03:20;4.33;;;2.90;;
4434;SDS011;46552;52.150;8.428;2023-04-10T15:05:47;5.30;;;3.13;;
4434;SDS011;46552;52.150;8.428;2023-04-10T15:08:15;6.17;;;2.77;;
4434;SDS011;46552;52.150;8.428;2023-04-10T15:10:42;4.93;;;2.97;;